sensor_id;sensor_type;location;lat;lon;timestamp;P1;durP1;ratioP1;P2;durP2;ratioP2
11703;SDS011;5908;51.354;7.458;2023-05-18T00:00:38;34.33;;;19.43;;
11703;SDS011;5908;51.354;7.458;2023-05-18T00:03:05;23.30;;;12.93;;
11703;SDS011;5908;51.354;7.458;2023-05-18T00:05:32;10.27;;;5.23;;
11703;SDS011;5908;51.354;7.458;2023-05-18T00:08:00;10.70;;;6.43;;
11703;SDS011;5908;51.354;7.458;2023-05-18T00:10:27;12.63;;;5.67;;
11703;SDS011;5908;51.354;7.458;2023-05-18T00:12:54;11.10;;;5.80;;
11703;SDS011;5908;51.354;7.458;2023-05-18T00:15:21;18.10;;;9.00;;
11703;SDS011;5908;51.354;7.458;2023-05-18T00:17:47;11.63;;;7.60;;
11703;SDS011;5908;51.354;7.458;2023-05-18T00:20:17;15.60;;;8.50;;
11703;SDS011;5908;51.354;7.458;2023-05-18T00:22:46;14.20;;;8.20;;
11703;SDS011;5908;51.354;7.458;2023-05-18T00:25:16;15.60;;;8.90;;
11703;SDS011;5908;51.354;7.458;2023-05-18T00:27:42;14.37;;;7.33;;
11703;SDS011;5908;51.354;7.458;2023-05-18T00:30:10;15.17;;;7.03;;
11703;SDS011;5908;51.354;7.458;2023-05-18T00:32:37;13.27;;;7.73;;
11703;SDS011;5908;51.354;7.458;2023-05-18T00:35:04;11.60;;;7.00;;
11703;SDS011;5908;51.354;7.458;2023-05-18T00:37:31;14.93;;;7.33;;
11703;SDS011;5908;51.354;7.458;2023-05-18T00:39:58;9.23;;;5.97;;
11703;SDS011;5908;51.354;7.458;2023-05-18T00:42:26;16.33;;;6.87;;
11703;SDS011;5908;51.354;7.458;2023-05-18T00:44:53;11.37;;;6.70;;
11703;SDS011;5908;51.354;7.458;2023-05-18T00:47:20;15.40;;;6.63;;
11703;SDS011;5908;51.354;7.458;2023-05-18T00:49:46;15.97;;;7.30;;
11703;SDS011;5908;51.354;7.458;2023-05-18T00:52:13;17.00;;;10.23;;
11703;SDS011;5908;51.354;7.458;2023-05-18T00:54:41;22.93;;;12.83;;
11703;SDS011;5908;51.354;7.458;2023-05-18T00:57:08;15.20;;;6.03;;
11703;SDS011;5908;51.354;7.458;2023-05-18T00:59:36;16.03;;;7.20;;
11703;SDS011;5908;51.354;7.458;2023-05-18T01:02:05;17.43;;;8.97;;
11703;SDS011;5908;51.354;7.458;2023-05-18T01:04:33;9.03;;;5.53;;
11703;SDS011;5908;51.354;7.458;2023-05-18T01:07:02;12.77;;;5.57;;
11703;SDS011;5908;51.354;7.458;2023-05-18T01:09:30;10.37;;;5.30;;
11703;SDS011;5908;51.354;7.458;2023-05-18T01:11:59;10.63;;;5.50;;
11703;SDS011;5908;51.354;7.458;2023-05-18T01:14:33;10.57;;;6.27;;
11703;SDS011;5908;51.354;7.458;2023-05-18T01:17:08;13.87;;;6.80;;
11703;SDS011;5908;51.354;7.458;2023-05-18T01:25:37;16.57;;;8.87;;
11703;SDS011;5908;51.354;7.458;2023-05-18T01:28:14;8.00;;;5.37;;
11703;SDS011;5908;51.354;7.458;2023-05-18T01:30:43;12.53;;;8.77;;
11703;SDS011;5908;51.354;7.458;2023-05-18T01:33:10;16.50;;;10.33;;
11703;SDS011;5908;51.354;7.458;2023-05-18T01:35:38;15.93;;;7.40;;
11703;SDS011;5908;51.354;7.458;2023-05-18T01:38:11;17.87;;;9.10;;
11703;SDS011;5908;51.354;7.458;2023-05-18T01:40:40;14.77;;;7.37;;
11703;SDS011;5908;51.354;7.458;2023-05-18T01:43:17;12.47;;;6.70;;
11703;SDS011;5908;51.354;7.458;2023-05-18T01:45:46;13.07;;;6.83;;
11703;SDS011;5908;51.354;7.458;2023-05-18T01:48:17;9.20;;;5.90;;
11703;SDS011;5908;51.354;7.458;2023-05-18T01:50:47;10.00;;;5.63;;
11703;SDS011;5908;51.354;7.458;2023-05-18T01:53:19;9.23;;;5.63;;
11703;SDS011;5908;51.354;7.458;2023-05-18T01:55:49;9.23;;;5.83;;
11703;SDS011;5908;51.354;7.458;2023-05-18T01:58:20;12.47;;;5.30;;
11703;SDS011;5908;51.354;7.458;2023-05-18T02:00:48;12.70;;;6.13;;
11703;SDS011;5908;51.354;7.458;2023-05-18T02:03:16;12.60;;;6.60;;
11703;SDS011;5908;51.354;7.458;2023-05-18T02:05:43;12.57;;;7.50;;
11703;SDS011;5908;51.354;7.458;2023-05-18T02:08:09;11.20;;;6.53;;
11703;SDS011;5908;51.354;7.458;2023-05-18T02:10:36;15.53;;;6.63;;
11703;SDS011;5908;51.354;7.458;2023-05-18T02:13:03;26.03;;;15.20;;
11703;SDS011;5908;51.354;7.458;2023-05-18T02:15:31;13.10;;;7.00;;
11703;SDS011;5908;51.354;7.458;2023-05-18T02:17:58;26.17;;;16.07;;
11703;SDS011;5908;51.354;7.458;2023-05-18T02:20:25;17.80;;;11.07;;
11703;SDS011;5908;51.354;7.458;2023-05-18T02:22:56;26.57;;;13.27;;
11703;SDS011;5908;51.354;7.458;2023-05-18T02:25:23;20.97;;;10.57;;
11703;SDS011;5908;51.354;7.458;2023-05-18T02:27:50;14.37;;;8.00;;
11703;SDS011;5908;51.354;7.458;2023-05-18T02:30:17;18.70;;;10.63;;
11703;SDS011;5908;51.354;7.458;2023-05-18T02:32:46;12.83;;;6.30;;
11703;SDS011;5908;51.354;7.458;2023-05-18T02:35:13;28.07;;;15.17;;
11703;SDS011;5908;51.354;7.458;2023-05-18T02:37:41;16.87;;;10.53;;
11703;SDS011;5908;51.354;7.458;2023-05-18T02:40:09;25.73;;;14.53;;
11703;SDS011;5908;51.354;7.458;2023-05-18T02:42:36;18.87;;;11.47;;
11703;SDS011;5908;51.354;7.458;2023-05-18T02:45:03;16.63;;;9.03;;
11703;SDS011;5908;51.354;7.458;2023-05-18T02:47:31;16.63;;;9.67;;
11703;SDS011;5908;51.354;7.458;2023-05-18T02:49:59;12.33;;;7.03;;
11703;SDS011;5908;51.354;7.458;2023-05-18T02:52:26;25.27;;;14.23;;
11703;SDS011;5908;51.354;7.458;2023-05-18T02:54:53;18.80;;;11.20;;
11703;SDS011;5908;51.354;7.458;2023-05-18T02:57:20;23.87;;;11.73;;
11703;SDS011;5908;51.354;7.458;2023-05-18T02:59:46;12.33;;;6.30;;
11703;SDS011;5908;51.354;7.458;2023-05-18T03:02:13;16.30;;;6.97;;
11703;SDS011;5908;51.354;7.458;2023-05-18T03:04:40;11.77;;;6.90;;
11703;SDS011;5908;51.354;7.458;2023-05-18T03:07:08;15.03;;;7.87;;
11703;SDS011;5908;51.354;7.458;2023-05-18T03:09:35;10.43;;;6.27;;
11703;SDS011;5908;51.354;7.458;2023-05-18T03:12:02;16.33;;;8.83;;
11703;SDS011;5908;51.354;7.458;2023-05-18T03:14:29;12.43;;;6.97;;
11703;SDS011;5908;51.354;7.458;2023-05-18T03:16:56;14.00;;;7.77;;
11703;SDS011;5908;51.354;7.458;2023-05-18T03:19:22;12.30;;;6.97;;
11703;SDS011;5908;51.354;7.458;2023-05-18T03:21:51;13.57;;;8.17;;
11703;SDS011;5908;51.354;7.458;2023-05-18T03:24:19;9.83;;;6.40;;
11703;SDS011;5908;51.354;7.458;2023-05-18T03:26:46;14.40;;;7.33;;
11703;SDS011;5908;51.354;7.458;2023-05-18T03:29:12;11.70;;;6.17;;
11703;SDS011;5908;51.354;7.458;2023-05-18T03:31:39;10.60;;;6.30;;
11703;SDS011;5908;51.354;7.458;2023-05-18T03:34:06;10.63;;;6.60;;
11703;SDS011;5908;51.354;7.458;2023-05-18T03:36:33;11.60;;;6.83;;
11703;SDS011;5908;51.354;7.458;2023-05-18T03:39:02;9.60;;;6.10;;
11703;SDS011;5908;51.354;7.458;2023-05-18T03:41:31;13.53;;;6.73;;
11703;SDS011;5908;51.354;7.458;2023-05-18T03:43:58;15.00;;;6.77;;
11703;SDS011;5908;51.354;7.458;2023-05-18T03:46:25;12.80;;;6.23;;
11703;SDS011;5908;51.354;7.458;2023-05-18T03:48:51;11.57;;;6.17;;
11703;SDS011;5908;51.354;7.458;2023-05-18T03:51:18;14.33;;;6.60;;
11703;SDS011;5908;51.354;7.458;2023-05-18T03:53:45;10.30;;;5.80;;
11703;SDS011;5908;51.354;7.458;2023-05-18T03:56:12;10.90;;;6.07;;
11703;SDS011;5908;51.354;7.458;2023-05-18T03:58:40;13.10;;;6.70;;
11703;SDS011;5908;51.354;7.458;2023-05-18T04:01:08;11.50;;;6.43;;
11703;SDS011;5908;51.354;7.458;2023-05-18T04:03:35;10.73;;;6.50;;
11703;SDS011;5908;51.354;7.458;2023-05-18T04:06:02;11.37;;;6.63;;
11703;SDS011;5908;51.354;7.458;2023-05-18T04:08:30;9.50;;;6.47;;
11703;SDS011;5908;51.354;7.458;2023-05-18T04:10:58;13.67;;;6.20;;
11703;SDS011;5908;51.354;7.458;2023-05-18T04:13:25;12.47;;;5.60;;
11703;SDS011;5908;51.354;7.458;2023-05-18T04:15:53;10.80;;;6.27;;
11703;SDS011;5908;51.354;7.458;2023-05-18T04:18:21;15.43;;;6.87;;
11703;SDS011;5908;51.354;7.458;2023-05-18T04:20:48;11.97;;;7.27;;
11703;SDS011;5908;51.354;7.458;2023-05-18T04:23:15;11.93;;;7.17;;
11703;SDS011;5908;51.354;7.458;2023-05-18T04:25:41;9.40;;;6.30;;
11703;SDS011;5908;51.354;7.458;2023-05-18T04:28:08;10.07;;;5.87;;
11703;SDS011;5908;51.354;7.458;2023-05-18T04:30:35;10.27;;;5.73;;
11703;SDS011;5908;51.354;7.458;2023-05-18T04:33:04;10.73;;;5.83;;
11703;SDS011;5908;51.354;7.458;2023-05-18T04:35:31;11.80;;;6.17;;
11703;SDS011;5908;51.354;7.458;2023-05-18T04:37:59;14.50;;;6.60;;
11703;SDS011;5908;51.354;7.458;2023-05-18T04:40:26;9.37;;;6.47;;
11703;SDS011;5908;51.354;7.458;2023-05-18T04:42:53;10.27;;;5.43;;
11703;SDS011;5908;51.354;7.458;2023-05-18T04:45:20;11.23;;;5.60;;
11703;SDS011;5908;51.354;7.458;2023-05-18T04:47:47;14.17;;;6.47;;
11703;SDS011;5908;51.354;7.458;2023-05-18T04:50:18;11.80;;;7.13;;
11703;SDS011;5908;51.354;7.458;2023-05-18T04:52:47;13.63;;;7.40;;
11703;SDS011;5908;51.354;7.458;2023-05-18T04:55:15;10.80;;;7.97;;
11703;SDS011;5908;51.354;7.458;2023-05-18T04:57:46;17.03;;;9.73;;
11703;SDS011;5908;51.354;7.458;2023-05-18T05:00:14;12.40;;;7.43;;
11703;SDS011;5908;51.354;7.458;2023-05-18T05:02:42;13.90;;;7.50;;
11703;SDS011;5908;51.354;7.458;2023-05-18T05:05:08;12.63;;;7.27;;
11703;SDS011;5908;51.354;7.458;2023-05-18T05:07:37;11.23;;;7.53;;
11703;SDS011;5908;51.354;7.458;2023-05-18T05:10:04;13.97;;;7.77;;
11703;SDS011;5908;51.354;7.458;2023-05-18T05:12:31;10.37;;;7.13;;
11703;SDS011;5908;51.354;7.458;2023-05-18T05:15:00;11.77;;;7.03;;
11703;SDS011;5908;51.354;7.458;2023-05-18T05:17:27;13.47;;;7.20;;
11703;SDS011;5908;51.354;7.458;2023-05-18T05:19:53;11.80;;;6.50;;
11703;SDS011;5908;51.354;7.458;2023-05-18T05:22:20;11.03;;;6.20;;
11703;SDS011;5908;51.354;7.458;2023-05-18T05:24:48;9.70;;;6.13;;
11703;SDS011;5908;51.354;7.458;2023-05-18T05:27:15;12.60;;;6.87;;
11703;SDS011;5908;51.354;7.458;2023-05-18T05:29:44;11.77;;;6.30;;
11703;SDS011;5908;51.354;7.458;2023-05-18T05:32:11;11.03;;;6.53;;
11703;SDS011;5908;51.354;7.458;2023-05-18T05:34:38;12.33;;;6.40;;
11703;SDS011;5908;51.354;7.458;2023-05-18T05:37:05;13.07;;;6.30;;
11703;SDS011;5908;51.354;7.458;2023-05-18T05:39:31;15.73;;;6.83;;
11703;SDS011;5908;51.354;7.458;2023-05-18T05:41:59;11.77;;;6.30;;
11703;SDS011;5908;51.354;7.458;2023-05-18T05:44:26;11.23;;;6.63;;
11703;SDS011;5908;51.354;7.458;2023-05-18T05:46:53;13.23;;;6.63;;
11703;SDS011;5908;51.354;7.458;2023-05-18T05:49:20;9.67;;;6.77;;
11703;SDS011;5908;51.354;7.458;2023-05-18T05:51:46;13.00;;;7.10;;
11703;SDS011;5908;51.354;7.458;2023-05-18T05:54:13;10.83;;;6.30;;
11703;SDS011;5908;51.354;7.458;2023-05-18T05:56:40;12.17;;;6.33;;
11703;SDS011;5908;51.354;7.458;2023-05-18T05:59:08;13.07;;;6.43;;
11703;SDS011;5908;51.354;7.458;2023-05-18T06:01:35;15.30;;;8.70;;
11703;SDS011;5908;51.354;7.458;2023-05-18T06:04:02;11.27;;;6.00;;
11703;SDS011;5908;51.354;7.458;2023-05-18T06:06:30;11.80;;;6.67;;
11703;SDS011;5908;51.354;7.458;2023-05-18T06:08:57;11.93;;;6.27;;
11703;SDS011;5908;51.354;7.458;2023-05-18T06:11:24;13.33;;;8.83;;
11703;SDS011;5908;51.354;7.458;2023-05-18T06:13:51;13.93;;;8.47;;
11703;SDS011;5908;51.354;7.458;2023-05-18T06:16:19;12.53;;;7.03;;
11703;SDS011;5908;51.354;7.458;2023-05-18T06:18:46;10.47;;;6.73;;
11703;SDS011;5908;51.354;7.458;2023-05-18T06:21:13;9.37;;;6.70;;
11703;SDS011;5908;51.354;7.458;2023-05-18T06:23:39;11.27;;;7.47;;
11703;SDS011;5908;51.354;7.458;2023-05-18T06:26:06;11.37;;;6.83;;
11703;SDS011;5908;51.354;7.458;2023-05-18T06:28:33;12.07;;;6.33;;
11703;SDS011;5908;51.354;7.458;2023-05-18T06:31:00;13.00;;;6.33;;
11703;SDS011;5908;51.354;7.458;2023-05-18T06:33:28;10.10;;;6.10;;
11703;SDS011;5908;51.354;7.458;2023-05-18T06:35:55;9.20;;;6.20;;
11703;SDS011;5908;51.354;7.458;2023-05-18T06:38:22;9.83;;;6.37;;
11703;SDS011;5908;51.354;7.458;2023-05-18T06:40:49;12.90;;;7.13;;
11703;SDS011;5908;51.354;7.458;2023-05-18T06:43:16;10.67;;;7.37;;
11703;SDS011;5908;51.354;7.458;2023-05-18T06:45:43;11.83;;;6.53;;
11703;SDS011;5908;51.354;7.458;2023-05-18T06:48:10;9.07;;;5.73;;
11703;SDS011;5908;51.354;7.458;2023-05-18T06:50:39;13.13;;;6.17;;
11703;SDS011;5908;51.354;7.458;2023-05-18T06:53:05;12.60;;;6.17;;
11703;SDS011;5908;51.354;7.458;2023-05-18T06:55:32;10.07;;;6.00;;
11703;SDS011;5908;51.354;7.458;2023-05-18T06:57:59;10.43;;;6.27;;
11703;SDS011;5908;51.354;7.458;2023-05-18T07:00:26;11.57;;;6.90;;
11703;SDS011;5908;51.354;7.458;2023-05-18T07:02:53;10.43;;;5.33;;
11703;SDS011;5908;51.354;7.458;2023-05-18T07:05:20;11.30;;;5.90;;
11703;SDS011;5908;51.354;7.458;2023-05-18T07:07:48;13.03;;;5.10;;
11703;SDS011;5908;51.354;7.458;2023-05-18T07:10:15;9.13;;;5.40;;
11703;SDS011;5908;51.354;7.458;2023-05-18T07:12:42;10.30;;;6.00;;
11703;SDS011;5908;51.354;7.458;2023-05-18T07:15:09;9.37;;;5.80;;
11703;SDS011;5908;51.354;7.458;2023-05-18T07:17:36;9.57;;;6.00;;
11703;SDS011;5908;51.354;7.458;2023-05-18T07:20:04;9.77;;;5.73;;
11703;SDS011;5908;51.354;7.458;2023-05-18T07:22:31;10.93;;;6.10;;
11703;SDS011;5908;51.354;7.458;2023-05-18T07:24:59;9.83;;;5.90;;
11703;SDS011;5908;51.354;7.458;2023-05-18T07:27:26;10.77;;;6.77;;
11703;SDS011;5908;51.354;7.458;2023-05-18T07:29:53;8.37;;;5.63;;
11703;SDS011;5908;51.354;7.458;2023-05-18T07:32:20;10.17;;;5.57;;
11703;SDS011;5908;51.354;7.458;2023-05-18T07:34:47;12.70;;;5.90;;
11703;SDS011;5908;51.354;7.458;2023-05-18T07:37:13;12.17;;;5.10;;
11703;SDS011;5908;51.354;7.458;2023-05-18T07:39:41;9.43;;;5.03;;
11703;SDS011;5908;51.354;7.458;2023-05-18T07:42:09;11.03;;;5.40;;
11703;SDS011;5908;51.354;7.458;2023-05-18T07:44:36;10.53;;;5.93;;
11703;SDS011;5908;51.354;7.458;2023-05-18T07:47:03;8.43;;;4.90;;
11703;SDS011;5908;51.354;7.458;2023-05-18T07:49:30;11.77;;;4.87;;
11703;SDS011;5908;51.354;7.458;2023-05-18T07:51:56;11.10;;;6.33;;
11703;SDS011;5908;51.354;7.458;2023-05-18T07:54:24;10.87;;;4.70;;
11703;SDS011;5908;51.354;7.458;2023-05-18T07:56:51;11.67;;;4.10;;
11703;SDS011;5908;51.354;7.458;2023-05-18T07:59:19;7.77;;;4.00;;
11703;SDS011;5908;51.354;7.458;2023-05-18T08:01:46;7.83;;;4.07;;
11703;SDS011;5908;51.354;7.458;2023-05-18T08:04:13;8.43;;;3.60;;
11703;SDS011;5908;51.354;7.458;2023-05-18T08:06:40;9.30;;;4.17;;
11703;SDS011;5908;51.354;7.458;2023-05-18T08:09:07;8.93;;;3.93;;
11703;SDS011;5908;51.354;7.458;2023-05-18T08:11:34;12.83;;;4.40;;
11703;SDS011;5908;51.354;7.458;2023-05-18T08:14:01;11.00;;;3.93;;
11703;SDS011;5908;51.354;7.458;2023-05-18T08:16:29;7.50;;;3.60;;
11703;SDS011;5908;51.354;7.458;2023-05-18T08:19:00;8.17;;;4.40;;
11703;SDS011;5908;51.354;7.458;2023-05-18T08:21:27;9.67;;;4.50;;
11703;SDS011;5908;51.354;7.458;2023-05-18T08:23:54;8.93;;;3.97;;
11703;SDS011;5908;51.354;7.458;2023-05-18T08:26:21;10.73;;;4.47;;
11703;SDS011;5908;51.354;7.458;2023-05-18T08:28:48;11.13;;;4.67;;
11703;SDS011;5908;51.354;7.458;2023-05-18T08:31:15;10.53;;;4.60;;
11703;SDS011;5908;51.354;7.458;2023-05-18T08:33:43;9.90;;;4.50;;
11703;SDS011;5908;51.354;7.458;2023-05-18T08:36:11;9.83;;;4.60;;
11703;SDS011;5908;51.354;7.458;2023-05-18T08:38:37;7.60;;;5.03;;
11703;SDS011;5908;51.354;7.458;2023-05-18T08:41:07;11.30;;;4.00;;
11703;SDS011;5908;51.354;7.458;2023-05-18T08:43:40;10.67;;;4.17;;
11703;SDS011;5908;51.354;7.458;2023-05-18T08:46:12;9.77;;;4.37;;
11703;SDS011;5908;51.354;7.458;2023-05-18T08:48:46;11.33;;;4.13;;
11703;SDS011;5908;51.354;7.458;2023-05-18T08:51:16;7.63;;;3.97;;
11703;SDS011;5908;51.354;7.458;2023-05-18T08:53:45;8.67;;;4.10;;
11703;SDS011;5908;51.354;7.458;2023-05-18T08:56:17;8.97;;;4.13;;
11703;SDS011;5908;51.354;7.458;2023-05-18T08:58:47;8.30;;;4.00;;
11703;SDS011;5908;51.354;7.458;2023-05-18T09:01:16;9.43;;;4.20;;
11703;SDS011;5908;51.354;7.458;2023-05-18T09:03:43;8.93;;;3.80;;
11703;SDS011;5908;51.354;7.458;2023-05-18T09:06:13;6.63;;;3.90;;
11703;SDS011;5908;51.354;7.458;2023-05-18T09:08:40;9.13;;;4.40;;
11703;SDS011;5908;51.354;7.458;2023-05-18T09:11:07;9.47;;;4.13;;
11703;SDS011;5908;51.354;7.458;2023-05-18T09:13:35;9.83;;;4.40;;
11703;SDS011;5908;51.354;7.458;2023-05-18T09:16:03;11.27;;;4.40;;
11703;SDS011;5908;51.354;7.458;2023-05-18T09:18:31;7.57;;;3.97;;
11703;SDS011;5908;51.354;7.458;2023-05-18T09:20:59;10.23;;;4.00;;
11703;SDS011;5908;51.354;7.458;2023-05-18T09:23:26;8.27;;;3.87;;
11703;SDS011;5908;51.354;7.458;2023-05-18T09:25:53;9.00;;;4.03;;
11703;SDS011;5908;51.354;7.458;2023-05-18T09:28:25;11.10;;;4.43;;
11703;SDS011;5908;51.354;7.458;2023-05-18T09:30:52;10.00;;;4.53;;
11703;SDS011;5908;51.354;7.458;2023-05-18T09:33:20;8.63;;;4.50;;
11703;SDS011;5908;51.354;7.458;2023-05-18T09:35:48;8.33;;;4.30;;
11703;SDS011;5908;51.354;7.458;2023-05-18T09:38:17;12.27;;;4.43;;
11703;SDS011;5908;51.354;7.458;2023-05-18T09:40:47;11.13;;;4.40;;
11703;SDS011;5908;51.354;7.458;2023-05-18T09:43:15;9.30;;;4.80;;
11703;SDS011;5908;51.354;7.458;2023-05-18T09:45:43;7.53;;;3.90;;
11703;SDS011;5908;51.354;7.458;2023-05-18T09:48:11;8.40;;;4.10;;
11703;SDS011;5908;51.354;7.458;2023-05-18T09:50:39;10.23;;;4.40;;
11703;SDS011;5908;51.354;7.458;2023-05-18T09:53:06;9.10;;;4.40;;
11703;SDS011;5908;51.354;7.458;2023-05-18T09:55:36;10.10;;;4.60;;
11703;SDS011;5908;51.354;7.458;2023-05-18T09:58:09;8.03;;;4.43;;
11703;SDS011;5908;51.354;7.458;2023-05-18T10:00:36;8.77;;;3.90;;
11703;SDS011;5908;51.354;7.458;2023-05-18T10:03:15;9.17;;;4.70;;
11703;SDS011;5908;51.354;7.458;2023-05-18T10:05:43;8.57;;;4.50;;
11703;SDS011;5908;51.354;7.458;2023-05-18T10:08:11;9.90;;;4.13;;
11703;SDS011;5908;51.354;7.458;2023-05-18T10:10:42;8.90;;;4.63;;
11703;SDS011;5908;51.354;7.458;2023-05-18T10:13:14;10.60;;;4.10;;
11703;SDS011;5908;51.354;7.458;2023-05-18T10:15:45;9.87;;;4.47;;
11703;SDS011;5908;51.354;7.458;2023-05-18T10:18:14;7.27;;;4.20;;
11703;SDS011;5908;51.354;7.458;2023-05-18T10:20:46;6.90;;;3.83;;
11703;SDS011;5908;51.354;7.458;2023-05-18T10:23:14;10.23;;;4.57;;
11703;SDS011;5908;51.354;7.458;2023-05-18T10:25:44;9.80;;;4.47;;
11703;SDS011;5908;51.354;7.458;2023-05-18T10:28:13;9.40;;;4.53;;
11703;SDS011;5908;51.354;7.458;2023-05-18T10:30:45;11.67;;;4.37;;
11703;SDS011;5908;51.354;7.458;2023-05-18T10:33:12;9.70;;;4.13;;
11703;SDS011;5908;51.354;7.458;2023-05-18T10:35:42;11.37;;;4.33;;
11703;SDS011;5908;51.354;7.458;2023-05-18T10:38:13;8.63;;;4.50;;
11703;SDS011;5908;51.354;7.458;2023-05-18T10:40:45;10.03;;;4.30;;
11703;SDS011;5908;51.354;7.458;2023-05-18T10:43:13;9.13;;;4.78;;
11703;SDS011;5908;51.354;7.458;2023-05-18T10:45:43;8.67;;;4.20;;
11703;SDS011;5908;51.354;7.458;2023-05-18T10:48:12;7.63;;;4.40;;
11703;SDS011;5908;51.354;7.458;2023-05-18T10:50:40;10.75;;;5.32;;
11703;SDS011;5908;51.354;7.458;2023-05-18T10:53:08;9.60;;;4.47;;
11703;SDS011;5908;51.354;7.458;2023-05-18T10:55:35;9.50;;;4.60;;
11703;SDS011;5908;51.354;7.458;2023-05-18T10:58:04;7.83;;;4.47;;
11703;SDS011;5908;51.354;7.458;2023-05-18T11:00:35;13.00;;;4.90;;
11703;SDS011;5908;51.354;7.458;2023-05-18T11:03:06;8.10;;;4.17;;
11703;SDS011;5908;51.354;7.458;2023-05-18T11:05:37;7.20;;;3.90;;
11703;SDS011;5908;51.354;7.458;2023-05-18T11:08:04;9.60;;;4.23;;
11703;SDS011;5908;51.354;7.458;2023-05-18T11:10:32;6.87;;;4.10;;
11703;SDS011;5908;51.354;7.458;2023-05-18T11:13:00;9.67;;;4.20;;
11703;SDS011;5908;51.354;7.458;2023-05-18T11:18:40;9.67;;;4.40;;
11703;SDS011;5908;51.354;7.458;2023-05-18T11:21:18;9.33;;;4.53;;
11703;SDS011;5908;51.354;7.458;2023-05-18T11:26:38;9.10;;;4.50;;
11703;SDS011;5908;51.354;7.458;2023-05-18T11:29:14;6.80;;;4.40;;
11703;SDS011;5908;51.354;7.458;2023-05-18T11:31:42;8.57;;;4.67;;
11703;SDS011;5908;51.354;7.458;2023-05-18T11:37:46;9.43;;;4.33;;
11703;SDS011;5908;51.354;7.458;2023-05-18T11:43:16;9.60;;;4.18;;
11703;SDS011;5908;51.354;7.458;2023-05-18T11:45:50;9.20;;;4.50;;
11703;SDS011;5908;51.354;7.458;2023-05-18T11:48:19;8.80;;;4.20;;
11703;SDS011;5908;51.354;7.458;2023-05-18T11:50:47;9.57;;;4.30;;
11703;SDS011;5908;51.354;7.458;2023-05-18T11:53:17;8.85;;;4.30;;
11703;SDS011;5908;51.354;7.458;2023-05-18T11:55:43;8.60;;;4.63;;
11703;SDS011;5908;51.354;7.458;2023-05-18T11:58:10;9.77;;;4.43;;
11703;SDS011;5908;51.354;7.458;2023-05-18T12:00:43;10.20;;;4.13;;
11703;SDS011;5908;51.354;7.458;2023-05-18T12:03:11;9.55;;;4.43;;
11703;SDS011;5908;51.354;7.458;2023-05-18T12:05:38;8.90;;;4.13;;
11703;SDS011;5908;51.354;7.458;2023-05-18T12:08:08;9.45;;;4.15;;
11703;SDS011;5908;51.354;7.458;2023-05-18T12:10:37;9.35;;;4.72;;
11703;SDS011;5908;51.354;7.458;2023-05-18T12:13:05;9.10;;;4.72;;
11703;SDS011;5908;51.354;7.458;2023-05-18T12:15:32;9.90;;;4.50;;
11703;SDS011;5908;51.354;7.458;2023-05-18T12:18:01;8.50;;;4.25;;
11703;SDS011;5908;51.354;7.458;2023-05-18T12:20:28;10.80;;;5.00;;
11703;SDS011;5908;51.354;7.458;2023-05-18T12:22:55;8.45;;;4.20;;
11703;SDS011;5908;51.354;7.458;2023-05-18T12:25:24;8.38;;;4.05;;
11703;SDS011;5908;51.354;7.458;2023-05-18T12:27:53;9.82;;;4.28;;
11703;SDS011;5908;51.354;7.458;2023-05-18T12:30:22;11.38;;;4.80;;
11703;SDS011;5908;51.354;7.458;2023-05-18T12:32:50;11.38;;;4.35;;
11703;SDS011;5908;51.354;7.458;2023-05-18T12:35:20;10.13;;;4.20;;
11703;SDS011;5908;51.354;7.458;2023-05-18T12:37:47;9.40;;;4.63;;
11703;SDS011;5908;51.354;7.458;2023-05-18T12:40:15;14.93;;;8.30;;
11703;SDS011;5908;51.354;7.458;2023-05-18T12:42:53;10.60;;;4.68;;
11703;SDS011;5908;51.354;7.458;2023-05-18T12:45:24;8.55;;;4.53;;
11703;SDS011;5908;51.354;7.458;2023-05-18T12:47:52;12.38;;;4.15;;
11703;SDS011;5908;51.354;7.458;2023-05-18T12:50:20;7.70;;;4.30;;
11703;SDS011;5908;51.354;7.458;2023-05-18T12:52:47;8.43;;;4.47;;
11703;SDS011;5908;51.354;7.458;2023-05-18T12:55:16;9.50;;;4.05;;
11703;SDS011;5908;51.354;7.458;2023-05-18T12:57:45;8.43;;;4.40;;
11703;SDS011;5908;51.354;7.458;2023-05-18T13:00:24;7.90;;;4.00;;
11703;SDS011;5908;51.354;7.458;2023-05-18T13:02:51;9.70;;;4.25;;
11703;SDS011;5908;51.354;7.458;2023-05-18T13:05:22;8.15;;;3.80;;
11703;SDS011;5908;51.354;7.458;2023-05-18T13:07:49;7.35;;;3.83;;
11703;SDS011;5908;51.354;7.458;2023-05-18T13:10:16;9.00;;;4.50;;
11703;SDS011;5908;51.354;7.458;2023-05-18T13:12:45;10.70;;;4.30;;
11703;SDS011;5908;51.354;7.458;2023-05-18T13:15:15;7.18;;;3.67;;
11703;SDS011;5908;51.354;7.458;2023-05-18T13:17:55;7.38;;;3.70;;
11703;SDS011;5908;51.354;7.458;2023-05-18T13:20:28;10.15;;;4.40;;
11703;SDS011;5908;51.354;7.458;2023-05-18T13:22:56;9.40;;;3.92;;
11703;SDS011;5908;51.354;7.458;2023-05-18T13:25:24;9.10;;;3.80;;
11703;SDS011;5908;51.354;7.458;2023-05-18T13:27:51;9.77;;;4.40;;
11703;SDS011;5908;51.354;7.458;2023-05-18T13:30:20;10.05;;;4.10;;
11703;SDS011;5908;51.354;7.458;2023-05-18T13:32:47;7.30;;;3.40;;
11703;SDS011;5908;51.354;7.458;2023-05-18T13:35:15;10.10;;;4.28;;
11703;SDS011;5908;51.354;7.458;2023-05-18T13:37:42;9.52;;;3.70;;
11703;SDS011;5908;51.354;7.458;2023-05-18T13:40:11;7.43;;;3.58;;
11703;SDS011;5908;51.354;7.458;2023-05-18T13:42:38;7.30;;;3.67;;
11703;SDS011;5908;51.354;7.458;2023-05-18T13:45:05;6.38;;;3.25;;
11703;SDS011;5908;51.354;7.458;2023-05-18T13:47:34;7.63;;;3.72;;
11703;SDS011;5908;51.354;7.458;2023-05-18T13:50:01;6.60;;;3.50;;
11703;SDS011;5908;51.354;7.458;2023-05-18T13:52:28;11.82;;;3.88;;
11703;SDS011;5908;51.354;7.458;2023-05-18T13:54:55;7.88;;;3.33;;
11703;SDS011;5908;51.354;7.458;2023-05-18T13:57:21;6.25;;;3.42;;
11703;SDS011;5908;51.354;7.458;2023-05-18T13:59:50;10.15;;;3.80;;
11703;SDS011;5908;51.354;7.458;2023-05-18T14:02:18;8.17;;;3.70;;
11703;SDS011;5908;51.354;7.458;2023-05-18T14:04:46;5.97;;;3.22;;
11703;SDS011;5908;51.354;7.458;2023-05-18T14:07:13;8.38;;;3.45;;
11703;SDS011;5908;51.354;7.458;2023-05-18T14:09:39;7.88;;;3.80;;
11703;SDS011;5908;51.354;7.458;2023-05-18T14:12:06;11.98;;;3.47;;
11703;SDS011;5908;51.354;7.458;2023-05-18T14:14:34;10.43;;;4.13;;
11703;SDS011;5908;51.354;7.458;2023-05-18T14:17:01;7.68;;;3.40;;
11703;SDS011;5908;51.354;7.458;2023-05-18T14:19:28;8.98;;;3.38;;
11703;SDS011;5908;51.354;7.458;2023-05-18T14:21:56;7.70;;;3.20;;
11703;SDS011;5908;51.354;7.458;2023-05-18T14:24:23;6.65;;;3.60;;
11703;SDS011;5908;51.354;7.458;2023-05-18T14:26:50;8.43;;;3.55;;
11703;SDS011;5908;51.354;7.458;2023-05-18T14:29:17;6.88;;;3.45;;
11703;SDS011;5908;51.354;7.458;2023-05-18T14:31:44;6.72;;;3.70;;
11703;SDS011;5908;51.354;7.458;2023-05-18T14:34:11;8.10;;;3.65;;
11703;SDS011;5908;51.354;7.458;2023-05-18T14:36:38;6.80;;;3.08;;
11703;SDS011;5908;51.354;7.458;2023-05-18T14:39:06;5.32;;;2.88;;
11703;SDS011;5908;51.354;7.458;2023-05-18T14:41:33;5.60;;;3.45;;
11703;SDS011;5908;51.354;7.458;2023-05-18T14:43:59;5.22;;;2.60;;
11703;SDS011;5908;51.354;7.458;2023-05-18T14:46:27;5.90;;;3.00;;
11703;SDS011;5908;51.354;7.458;2023-05-18T14:48:54;6.10;;;3.15;;
11703;SDS011;5908;51.354;7.458;2023-05-18T14:51:21;7.50;;;3.45;;
11703;SDS011;5908;51.354;7.458;2023-05-18T14:53:48;7.07;;;3.10;;
11703;SDS011;5908;51.354;7.458;2023-05-18T14:56:16;6.05;;;3.10;;
11703;SDS011;5908;51.354;7.458;2023-05-18T14:58:43;7.63;;;3.47;;
11703;SDS011;5908;51.354;7.458;2023-05-18T15:01:10;7.32;;;3.30;;
11703;SDS011;5908;51.354;7.458;2023-05-18T15:03:37;5.63;;;3.03;;
11703;SDS011;5908;51.354;7.458;2023-05-18T15:06:04;8.73;;;3.40;;
11703;SDS011;5908;51.354;7.458;2023-05-18T15:08:30;9.23;;;3.25;;
11703;SDS011;5908;51.354;7.458;2023-05-18T15:10:57;9.18;;;2.95;;
11703;SDS011;5908;51.354;7.458;2023-05-18T15:13:25;6.30;;;3.17;;
11703;SDS011;5908;51.354;7.458;2023-05-18T15:15:52;6.93;;;3.17;;